Time;durP1;ratioP1;P1;durP2;ratioP2;P2;SDS_P1;SDS_P2;PMS_P1;PMS_P2;Temp;Humidity;BMP_temperature;BMP_pressure;BME280_temperature;BME280_humidity;BME280_pressure;Samples;Min_cycle;Max_cycle;Signal;HPM_P1;HPM_P2
2022/11/24 00:01:29;;;;;;;19.98;6.80;;;;;;;5.91;81.82;100992.16;1874643;76;21091;-48
2022/11/24 00:04:01;;;;;;;17.17;7.25;;;;;;;5.92;81.81;100987.78;1874450;76;21103;-47
2022/11/24 00:06:31;;;;;;;21.25;7.37;;;;;;;5.89;81.95;100991.77;1879072;75;21078;-48
2022/11/24 00:09:00;;;;;;;16.10;5.97;;;;;;;5.89;81.90;100991.77;1877091;76;21043;-46
2022/11/24 00:11:32;;;;;;;15.03;6.05;;;;;;;5.88;81.87;100986.11;1876970;76;21039;-45
2022/11/24 00:14:01;;;;;;;15.83;6.33;;;;;;;5.90;81.95;100990.87;1876968;76;21542;-45
2022/11/24 00:16:35;;;;;;;14.43;6.20;;;;;;;5.87;81.88;100973.95;1877023;76;21486;-46
2022/11/24 00:19:07;;;;;;;20.70;6.45;;;;;;;5.84;81.95;100979.22;1876900;76;21105;-44
2022/11/24 00:21:37;;;;;;;14.30;6.83;;;;;;;5.84;81.94;100977.91;1871844;76;21182;-45
2022/11/24 00:24:06;;;;;;;14.45;6.15;;;;;;;5.81;82.08;100973.61;1873607;76;21454;-46
2022/11/24 00:26:37;;;;;;;16.32;6.03;;;;;;;5.80;82.09;100971.41;1871864;76;21177;-46
2022/11/24 00:29:07;;;;;;;12.35;6.12;;;;;;;5.79;82.14;100969.70;1870668;76;21082;-46
2022/11/24 00:31:38;;;;;;;21.52;7.10;;;;;;;5.76;82.23;100967.12;1873754;76;21617;-46
2022/11/24 00:34:14;;;;;;;16.07;7.20;;;;;;;5.72;82.34;100960.23;1873079;76;20996;-45
2022/11/24 00:36:43;;;;;;;16.17;6.80;;;;;;;5.72;82.29;100961.53;1871404;76;21109;-45
2022/11/24 00:39:13;;;;;;;13.45;6.78;;;;;;;5.70;82.40;100956.78;1871699;76;21035;-45
2022/11/24 00:41:43;;;;;;;16.42;7.17;;;;;;;5.68;82.40;100955.06;1872527;76;21031;-44
2022/11/24 00:44:11;;;;;;;14.07;7.30;;;;;;;5.68;82.40;100952.45;1871370;76;21154;-46
2022/11/24 00:46:40;;;;;;;18.87;7.17;;;;;;;5.68;82.53;100955.95;1872496;76;21624;-43
2022/11/24 00:49:10;;;;;;;16.35;5.87;;;;;;;5.69;82.55;100949.81;1872867;76;21109;-50
2022/11/24 00:51:39;;;;;;;18.82;7.42;;;;;;;5.68;82.52;100949.41;1874157;76;21040;-46
2022/11/24 00:54:07;;;;;;;18.52;6.65;;;;;;;5.68;82.67;100953.33;1873938;76;21220;-42
2022/11/24 00:56:36;;;;;;;21.93;6.47;;;;;;;5.65;82.76;100949.91;1870648;76;21141;-43
2022/11/24 00:59:05;;;;;;;12.93;6.28;;;;;;;5.64;82.68;100952.08;1872983;76;21536;-51
2022/11/24 01:01:34;;;;;;;15.50;6.03;;;;;;;5.62;82.72;100948.18;1873821;76;21139;-48
2022/11/24 01:04:04;;;;;;;25.30;7.22;;;;;;;5.59;82.83;100948.25;1867246;77;21008;-48
2022/11/24 01:06:34;;;;;;;16.20;7.37;;;;;;;5.58;82.72;100949.13;1872147;76;21149;-49
2022/11/24 01:09:03;;;;;;;14.73;6.30;;;;;;;5.58;82.70;100947.36;1876893;76;21110;-49
2022/11/24 01:14:23;;;;;;;12.53;7.12;;;;;;;5.53;82.77;100932.65;1876961;76;21075;-45
2022/11/24 01:16:52;;;;;;;15.58;6.85;;;;;;;5.54;82.69;100934.39;1877024;76;21035;-48
2022/11/24 01:19:21;;;;;;;17.25;6.58;;;;;;;5.56;82.59;100935.22;1902038;75;21079;-45
2022/11/24 01:21:50;;;;;;;16.75;7.55;;;;;;;5.58;82.52;100935.61;1896024;75;21048;-46
2022/11/24 01:24:19;;;;;;;13.70;5.97;;;;;;;5.58;82.50;100934.30;1873863;76;21048;-44
2022/11/24 01:26:47;;;;;;;17.90;6.53;;;;;;;5.56;82.57;100932.16;1876963;76;21517;-43
2022/11/24 01:29:16;;;;;;;20.40;7.17;;;;;;;5.56;82.59;100930.00;1867904;76;21043;-48
2022/11/24 01:31:45;;;;;;;17.25;7.47;;;;;;;5.55;82.71;100930.88;1867097;77;21004;-41
2022/11/24 01:34:14;;;;;;;22.73;6.87;;;;;;;5.54;82.73;100925.25;1867220;77;21027;-42
2022/11/24 01:36:43;;;;;;;16.35;7.65;;;;;;;5.51;82.78;100923.98;1867328;77;21055;-43
2022/11/24 01:39:12;;;;;;;14.60;5.85;;;;;;;5.49;82.85;100920.53;1867200;77;21047;-41
2022/11/24 01:41:41;;;;;;;12.35;6.03;;;;;;;5.48;82.84;100916.18;1881593;75;21035;-42
2022/11/24 01:44:30;;;;;;;14.70;7.25;;;;;;;5.48;82.75;100920.09;1875193;75;21043;-45
2022/11/24 01:47:01;;;;;;;15.93;7.58;;;;;;;5.47;82.72;100914.47;1858745;76;21093;-42
2022/11/24 01:49:48;;;;;;;14.63;6.70;;;;;;;5.43;82.85;100910.19;1876267;76;21044;-46
2022/11/24 01:52:38;;;;;;;25.48;8.00;;;;;;;5.40;82.98;100914.58;1845504;78;21094;-42
2022/11/24 01:55:15;;;;;;;16.65;6.42;;;;;;;5.35;83.10;100908.55;1845540;77;21134;-45
2022/11/24 01:57:46;;;;;;;18.65;6.60;;;;;;;5.34;83.02;100904.65;1845372;78;21043;-42
2022/11/24 02:00:17;;;;;;;15.90;5.85;;;;;;;5.34;83.02;100898.98;1858636;76;21475;-43
2022/11/24 02:02:46;;;;;;;13.30;6.15;;;;;;;5.35;83.11;100895.95;1872628;76;21118;-44
2022/11/24 02:05:20;;;;;;;17.40;5.70;;;;;;;5.32;83.17;100899.89;1876825;76;21113;-44
2022/11/24 02:07:50;;;;;;;15.85;6.92;;;;;;;5.30;83.21;100899.91;1875496;76;21079;-44
2022/11/24 02:10:19;;;;;;;10.53;5.67;;;;;;;5.31;83.33;100895.55;1883734;76;21035;-43
2022/11/24 02:12:51;;;;;;;16.93;7.42;;;;;;;5.31;83.34;100892.52;1893319;76;21086;-45
2022/11/24 02:15:20;;;;;;;18.00;7.60;;;;;;;5.31;83.46;100895.13;1874398;75;21035;-44
2022/11/24 02:17:49;;;;;;;15.48;6.35;;;;;;;5.29;83.49;100890.80;1878649;75;21101;-46
2022/11/24 02:20:18;;;;;;;18.17;7.25;;;;;;;5.28;83.70;100887.33;1893221;76;21098;-44
2022/11/24 02:23:02;;;;;;;20.85;8.10;;;;;;;5.30;83.63;100883.39;1893231;76;21502;-46
2022/11/24 02:25:55;;;;;;;17.82;7.10;;;;;;;5.31;83.51;100882.07;1890873;76;21116;-44
2022/11/24 02:28:26;;;;;;;13.88;6.35;;;;;;;5.32;83.56;100890.30;1880977;76;21646;-43
2022/11/24 02:30:55;;;;;;;21.65;7.20;;;;;;;5.28;83.60;100884.72;1872997;76;21453;-45
2022/11/24 02:33:24;;;;;;;17.50;6.50;;;;;;;5.26;83.75;100883.88;1874177;76;21468;-42
2022/11/24 02:35:53;;;;;;;17.45;6.92;;;;;;;5.26;83.77;100886.48;1874262;76;21547;-43
2022/11/24 02:38:35;;;;;;;14.70;6.47;;;;;;;5.28;83.71;100879.95;1874135;76;21654;-41
2022/11/24 02:41:07;;;;;;;19.67;6.25;;;;;;;5.29;83.74;100883.81;1878460;76;21415;-43
2022/11/24 02:43:38;;;;;;;19.00;6.17;;;;;;;5.27;83.77;100881.67;1876351;76;21008;-44
2022/11/24 02:46:09;;;;;;;17.65;6.17;;;;;;;5.25;83.74;100875.61;1893222;76;21461;-47
2022/11/24 02:48:38;;;;;;;15.95;6.50;;;;;;;5.24;83.66;100876.52;1893224;76;21035;-50
2022/11/24 02:51:07;;;;;;;17.57;6.35;;;;;;;5.26;83.57;100877.80;1888238;76;21411;-45
2022/11/24 02:53:36;;;;;;;15.68;6.03;;;;;;;5.27;83.50;100879.06;1881296;76;21164;-51
2022/11/24 02:56:05;;;;;;;17.20;7.12;;;;;;;5.28;83.50;100880.80;1873714;76;21039;-45
2022/11/24 02:58:34;;;;;;;18.80;7.10;;;;;;;5.27;83.60;100867.31;1881622;76;21109;-50
2022/11/24 03:01:02;;;;;;;16.12;8.20;;;;;;;5.27;83.68;100875.59;1884405;76;21058;-49
2022/11/24 03:03:31;;;;;;;20.97;7.97;;;;;;;5.25;83.71;100873.00;1878394;76;21017;-48
2022/11/24 03:06:00;;;;;;;16.30;7.60;;;;;;;5.27;83.71;100871.23;1880516;76;21043;-48
2022/11/24 03:08:28;;;;;;;15.58;7.65;;;;;;;5.24;83.78;100881.73;1884443;75;21184;-48
2022/11/24 03:10:57;;;;;;;16.95;9.05;;;;;;;5.22;83.83;100862.62;1894828;75;21129;-46
2022/11/24 03:13:26;;;;;;;21.85;9.78;;;;;;;5.21;83.80;100863.05;1893855;75;21549;-47
2022/11/24 03:15:54;;;;;;;21.57;7.87;;;;;;;5.22;83.75;100879.14;1888064;75;21043;-43
2022/11/24 03:18:23;;;;;;;16.55;9.98;;;;;;;5.20;83.75;100873.09;1883707;76;21117;-45
2022/11/24 03:20:52;;;;;;;24.23;11.88;;;;;;;5.18;83.81;100864.84;1879695;76;21039;-48
2022/11/24 03:23:20;;;;;;;28.05;9.58;;;;;;;5.20;83.74;100880.92;1879672;76;21038;-46
2022/11/24 03:25:49;;;;;;;19.60;11.50;;;;;;;5.18;83.70;100869.64;1880867;76;21070;-50
2022/11/24 03:28:18;;;;;;;26.42;11.15;;;;;;;5.15;83.76;100861.84;1886116;76;21102;-47
2022/11/24 03:30:49;;;;;;;24.23;12.35;;;;;;;5.15;83.78;100860.99;1884195;76;21051;-46
2022/11/24 03:33:17;;;;;;;27.45;15.70;;;;;;;5.17;83.71;100861.83;1889284;76;21039;-47
2022/11/24 03:35:46;;;;;;;28.42;12.88;;;;;;;5.17;83.63;100860.52;1887426;76;21477;-48
2022/11/24 03:38:14;;;;;;;20.55;9.33;;;;;;;5.17;83.59;100855.30;1886465;76;21039;-47
2022/11/24 03:40:43;;;;;;;11.63;5.95;;;;;;;5.17;83.62;100855.30;1901846;75;21028;-48
2022/11/24 03:43:11;;;;;;;16.42;7.28;;;;;;;5.14;83.62;100859.25;1905700;75;21105;-49
2022/11/24 03:45:40;;;;;;;18.15;7.03;;;;;;;5.09;83.68;100862.36;1901562;75;21121;-47
2022/11/24 03:48:09;;;;;;;13.32;6.05;;;;;;;5.09;83.58;100866.28;1880520;76;21101;-46
2022/11/24 03:50:37;;;;;;;17.95;7.15;;;;;;;5.06;83.59;100855.91;1886464;76;21038;-46
2022/11/24 03:53:06;;;;;;;11.95;6.67;;;;;;;5.01;83.59;100863.78;1881013;76;21050;-49
2022/11/24 03:55:35;;;;;;;17.23;7.60;;;;;;;5.00;83.55;100861.63;1879470;76;21112;-47
2022/11/24 03:58:04;;;;;;;22.67;7.17;;;;;;;4.97;83.60;100849.91;1879846;76;21066;-48
2022/11/24 04:00:33;;;;;;;16.45;6.85;;;;;;;4.98;83.59;100857.29;1879319;76;21015;-48
2022/11/24 04:03:01;;;;;;;18.52;6.08;;;;;;;4.98;83.57;100859.48;1879305;76;21019;-52
2022/11/24 04:05:32;;;;;;;9.05;5.80;;;;;;;4.99;83.46;100866.86;1879359;76;21054;-49
2022/11/24 04:08:02;;;;;;;15.88;6.15;;;;;;;4.96;83.50;100858.64;1879853;75;21079;-52
2022/11/24 04:10:32;;;;;;;18.05;7.40;;;;;;;4.95;83.53;100865.19;1880561;74;21121;-49
2022/11/24 04:13:01;;;;;;;17.55;6.53;;;;;;;4.95;83.48;100856.05;1885781;76;21005;-50
2022/11/24 04:15:29;;;;;;;25.92;7.67;;;;;;;4.96;83.47;100842.09;1879852;76;21045;-49
2022/11/24 04:17:58;;;;;;;18.30;7.05;;;;;;;4.96;83.36;100835.16;1871576;74;21040;-52
2022/11/24 04:20:27;;;;;;;18.23;7.35;;;;;;;4.95;83.31;100838.64;1854330;77;21176;-52
2022/11/24 04:22:56;;;;;;;22.42;7.87;;;;;;;4.95;83.26;100858.21;1861407;77;21049;-50
2022/11/24 04:25:24;;;;;;;14.75;7.35;;;;;;;4.94;83.24;100855.20;1852440;77;21039;-47
2022/11/24 04:27:55;;;;;;;21.15;7.67;;;;;;;4.93;83.27;100852.16;1863424;77;21166;-51
2022/11/24 04:30:26;;;;;;;19.87;8.28;;;;;;;4.93;83.28;100843.02;1877840;76;21129;-51
2022/11/24 04:32:56;;;;;;;21.65;7.12;;;;;;;4.92;83.26;100841.28;1879437;76;21031;-51
2022/11/24 04:35:25;;;;;;;22.35;9.08;;;;;;;4.92;83.16;100833.45;1879264;76;21478;-50
2022/11/24 04:37:54;;;;;;;15.53;7.85;;;;;;;4.89;83.17;100838.73;1879335;76;21539;-48
2022/11/24 04:40:23;;;;;;;14.87;7.45;;;;;;;4.88;83.15;100842.66;1883456;76;21101;-49
2022/11/24 04:42:55;;;;;;;24.20;9.13;;;;;;;4.88;83.18;100837.45;1888762;76;21007;-50
2022/11/24 04:45:24;;;;;;;22.62;8.20;;;;;;;4.87;83.17;100844.84;1885968;76;21470;-48
2022/11/24 04:47:53;;;;;;;17.12;8.45;;;;;;;4.87;83.23;100856.16;1888736;76;21111;-47
2022/11/24 04:50:21;;;;;;;16.12;6.85;;;;;;;4.85;83.34;100835.75;1890212;76;21054;-48
2022/11/24 04:52:51;;;;;;;15.38;6.72;;;;;;;4.89;83.52;100852.20;1883705;76;21074;-48
2022/11/24 04:55:20;;;;;;;16.10;6.60;;;;;;;4.92;83.52;100841.73;1879658;76;21544;-48
2022/11/24 04:57:48;;;;;;;19.20;7.47;;;;;;;4.96;83.48;100842.98;1879769;76;21046;-46
2022/11/24 05:00:18;;;;;;;14.20;7.35;;;;;;;5.00;83.40;100845.97;1880581;74;21111;-48
2022/11/24 05:02:47;;;;;;;17.45;6.92;;;;;;;5.06;83.33;100838.94;1887066;76;21552;-49
2022/11/24 05:05:16;;;;;;;20.82;7.05;;;;;;;5.11;83.34;100835.80;1904211;75;21044;-47
2022/11/24 05:07:45;;;;;;;19.07;7.72;;;;;;;5.16;83.20;100855.72;1893047;75;21113;-55
2022/11/24 05:13:00;;;;;;;22.62;8.58;;;;;;;5.28;83.05;100849.47;1884158;76;21187;-55
2022/11/24 05:15:29;;;;;;;20.23;7.67;;;;;;;5.35;82.96;100850.25;1883432;76;21047;-48
2022/11/24 05:17:58;;;;;;;18.45;8.28;;;;;;;5.43;82.88;100861.88;1884510;76;21043;-51
2022/11/24 05:20:27;;;;;;;14.85;7.12;;;;;;;5.50;82.91;100855.67;1883501;76;21035;-53
2022/11/24 05:22:56;;;;;;;30.40;10.20;;;;;;;5.58;82.84;100851.16;1867372;77;21149;-52
2022/11/24 05:25:25;;;;;;;26.30;8.75;;;;;;;5.68;82.75;100853.17;1867373;76;21459;-48
2022/11/24 05:27:54;;;;;;;26.10;9.73;;;;;;;5.76;82.69;100846.94;1867710;76;21111;-50
2022/11/24 05:30:23;;;;;;;30.15;9.15;;;;;;;5.86;82.64;100848.94;1867671;76;21055;-51
2022/11/24 05:32:52;;;;;;;31.60;11.22;;;;;;;5.98;82.59;100843.98;1869591;76;21129;-53
2022/11/24 05:35:21;;;;;;;44.08;13.00;;;;;;;6.13;82.46;100834.98;1867981;76;21165;-52
2022/11/24 05:37:50;;;;;;;57.90;20.10;;;;;;;6.29;82.39;100840.77;1867345;76;21548;-52
2022/11/24 05:40:19;;;;;;;92.62;30.02;;;;;;;6.47;82.15;100830.38;1870372;76;21097;-53
2022/11/24 05:42:48;;;;;;;55.85;21.35;;;;;;;6.67;81.94;100837.36;1876819;76;21011;-48
2022/11/24 05:45:19;;;;;;;77.05;26.23;;;;;;;6.94;81.69;100837.21;1883579;75;21152;-48
2022/11/24 05:47:50;;;;;;;68.45;26.25;;;;;;;7.14;81.30;100831.53;1883596;76;21038;-49
2022/11/24 05:50:21;;;;;;;29.90;10.80;;;;;;;7.41;80.96;100836.14;1876070;76;21470;-47
2022/11/24 05:52:50;;;;;;;36.83;14.58;;;;;;;7.65;80.58;100842.06;1867903;76;21019;-45
2022/11/24 05:55:19;;;;;;;36.90;13.03;;;;;;;7.90;80.17;100839.69;1867554;76;21007;-52
2022/11/24 05:57:48;;;;;;;20.92;10.45;;;;;;;8.06;79.92;100837.53;1868149;76;21011;-51
2022/11/24 06:00:18;;;;;;;24.05;10.70;;;;;;;8.23;79.70;100838.83;1868351;76;21146;-47
2022/11/24 06:02:47;;;;;;;22.75;9.50;;;;;;;8.45;79.45;100847.84;1867710;75;21040;-47
2022/11/24 06:05:16;;;;;;;20.75;8.08;;;;;;;8.70;79.07;100845.81;1867548;76;21019;-49
2022/11/24 06:07:45;;;;;;;19.45;8.63;;;;;;;8.87;78.74;100854.48;1867573;77;21064;-52
2022/11/24 06:10:16;;;;;;;21.23;7.83;;;;;;;9.06;78.42;100847.78;1868471;75;21071;-51
2022/11/24 06:12:45;;;;;;;20.00;8.23;;;;;;;9.28;78.09;100856.31;1838866;76;21059;-51
2022/11/24 06:15:14;;;;;;;20.10;7.95;;;;;;;9.57;77.62;100846.17;1863896;76;21121;-52
2022/11/24 06:17:43;;;;;;;13.55;7.50;;;;;;;9.78;77.24;100848.98;1869912;76;21046;-51
2022/11/24 06:20:12;;;;;;;22.67;8.68;;;;;;;9.83;76.94;100849.67;1850560;76;21078;-51
2022/11/24 06:22:40;;;;;;;24.32;8.40;;;;;;;9.86;76.55;100848.25;1839589;76;21188;-52
2022/11/24 06:25:09;;;;;;;24.18;9.70;;;;;;;9.90;76.30;100850.33;1839342;77;21161;-52
2022/11/24 06:27:38;;;;;;;21.27;9.20;;;;;;;10.01;76.11;100846.44;1838775;77;21075;-49
2022/11/24 06:30:08;;;;;;;24.90;9.95;;;;;;;10.18;75.89;100851.52;1840852;77;21129;-47
2022/11/24 06:32:37;;;;;;;17.35;7.95;;;;;;;10.25;75.76;100849.08;1838847;77;21055;-49
2022/11/24 06:35:07;;;;;;;19.92;7.95;;;;;;;10.29;75.49;100850.72;1838859;77;21063;-50
2022/11/24 06:37:36;;;;;;;19.02;7.83;;;;;;;10.38;75.47;100853.05;1838723;78;21114;-49
2022/11/24 06:40:10;;;;;;;25.62;8.55;;;;;;;10.45;75.64;100839.18;1840626;77;21517;-48
2022/11/24 06:42:38;;;;;;;26.75;8.15;;;;;;;10.57;75.70;100839.20;1839381;77;21038;-51
2022/11/24 06:45:08;;;;;;;15.70;6.85;;;;;;;10.70;75.31;100848.34;1838769;77;21039;-52
2022/11/24 06:47:37;;;;;;;18.20;7.67;;;;;;;10.70;74.99;100835.18;1839063;77;21109;-51
2022/11/24 06:50:07;;;;;;;18.35;8.30;;;;;;;10.74;74.79;100842.05;1838847;77;21035;-49
2022/11/24 06:52:35;;;;;;;21.80;8.75;;;;;;;10.90;74.47;100841.01;1840858;77;21031;-48
2022/11/24 06:55:05;;;;;;;21.25;7.47;;;;;;;11.04;74.07;100835.65;1839312;77;21039;-52
2022/11/24 06:57:34;;;;;;;19.75;8.05;;;;;;;11.23;73.67;100844.98;1838746;78;21047;-54
2022/11/24 07:00:05;;;;;;;23.52;8.93;;;;;;;11.44;73.24;100842.81;1838531;77;21051;-55
2022/11/24 07:02:33;;;;;;;21.62;9.33;;;;;;;11.66;72.81;100840.62;1841326;77;21035;-55
2022/11/24 07:05:02;;;;;;;26.02;8.10;;;;;;;11.87;72.51;100835.73;1839061;77;21047;-54
2022/11/24 07:07:31;;;;;;;24.67;8.25;;;;;;;12.07;72.10;100838.02;1838509;78;21124;-55
2022/11/24 07:09:59;;;;;;;21.27;8.73;;;;;;;12.08;72.08;100831.35;1841748;76;21055;-55
2022/11/24 07:12:28;;;;;;;25.48;8.03;;;;;;;12.18;71.91;100837.08;1879243;76;21579;-55
2022/11/24 07:14:57;;;;;;;19.73;8.33;;;;;;;12.29;72.00;100836.13;1867515;76;21094;-54
2022/11/24 07:17:25;;;;;;;21.12;7.83;;;;;;;12.53;71.66;100832.00;1867113;77;21031;-52
2022/11/24 07:19:54;;;;;;;24.12;8.30;;;;;;;12.86;71.00;100835.33;1867069;77;21121;-52
2022/11/24 07:22:23;;;;;;;26.40;9.45;;;;;;;13.08;70.40;100830.73;1865090;76;21154;-49
2022/11/24 07:24:51;;;;;;;20.77;8.45;;;;;;;13.27;69.94;100829.84;1873332;75;21082;-47
2022/11/24 07:27:20;;;;;;;32.13;9.15;;;;;;;13.39;69.57;100817.81;1875674;76;21031;-48
2022/11/24 07:29:48;;;;;;;31.42;11.03;;;;;;;13.64;69.16;100822.27;1884038;75;21011;-47
2022/11/24 07:32:17;;;;;;;31.70;9.50;;;;;;;13.97;68.46;100815.34;1879580;75;21101;-49
2022/11/24 07:34:46;;;;;;;25.85;9.53;;;;;;;14.51;67.49;100813.81;1885087;75;21105;-49
2022/11/24 07:37:14;;;;;;;23.90;9.20;;;;;;;14.95;66.52;100814.52;1883342;76;21438;-51
2022/11/24 07:39:43;;;;;;;33.98;10.50;;;;;;;15.23;65.72;100817.32;1879663;76;21031;-50
2022/11/24 07:42:12;;;;;;;26.80;10.72;;;;;;;15.51;65.06;100814.40;1883576;76;21132;-49
2022/11/24 07:44:41;;;;;;;26.55;10.82;;;;;;;15.79;64.56;100801.70;1867727;75;21526;-49
2022/11/24 07:47:10;;;;;;;20.95;9.60;;;;;;;16.10;64.24;100805.61;1880544;75;21047;-51
2022/11/24 07:49:38;;;;;;;26.62;11.10;;;;;;;16.22;63.98;100802.21;1874271;76;21044;-50
2022/11/24 07:52:08;;;;;;;18.92;8.78;;;;;;;16.25;63.77;100799.83;1876490;76;21466;-49
2022/11/24 07:54:37;;;;;;;21.30;9.65;;;;;;;16.32;63.35;100797.17;1875966;75;21545;-46
2022/11/24 07:57:05;;;;;;;25.20;9.30;;;;;;;16.23;62.99;100795.09;1867620;76;21047;-45
2022/11/24 07:59:34;;;;;;;24.57;9.38;;;;;;;16.32;62.39;100798.50;1867629;76;21039;-48
2022/11/24 08:02:03;;;;;;;25.52;9.18;;;;;;;16.51;62.10;100790.25;1867305;77;21152;-47
2022/11/24 08:04:31;;;;;;;36.35;12.10;;;;;;;16.79;61.67;100793.33;1864984;77;21066;-51
2022/11/24 08:07:01;;;;;;;33.95;11.18;;;;;;;16.98;61.04;100786.36;1867200;77;21113;-49
2022/11/24 08:09:30;;;;;;;27.82;11.40;;;;;;;17.13;60.81;100789.83;1867023;77;21027;-47
2022/11/24 08:11:59;;;;;;;41.88;14.25;;;;;;;17.41;60.12;100781.34;1868848;76;21075;-49
2022/11/24 08:14:27;;;;;;;36.38;13.15;;;;;;;17.32;59.65;100785.00;1874435;75;21109;-53
2022/11/24 08:16:57;;;;;;;32.95;10.80;;;;;;;17.40;59.29;100781.83;1878760;75;21031;-53
2022/11/24 08:19:26;;;;;;;22.35;9.98;;;;;;;17.72;58.68;100782.33;1879715;75;21040;-45
2022/11/24 08:21:54;;;;;;;27.80;10.18;;;;;;;17.88;58.26;100779.47;1884171;76;21017;-47
2022/11/24 08:24:23;;;;;;;27.75;10.30;;;;;;;18.26;57.58;100781.73;1869083;76;21040;-45
2022/11/24 08:26:52;;;;;;;25.80;11.68;;;;;;;18.28;57.30;100779.35;1867564;76;21160;-44
2022/11/24 08:29:20;;;;;;;27.70;10.25;;;;;;;18.31;57.27;100779.60;1869949;77;21031;-47
2022/11/24 08:31:49;;;;;;;35.48;12.70;;;;;;;18.39;57.40;100777.27;1850863;76;21149;-48
2022/11/24 08:34:18;;;;;;;32.00;12.73;;;;;;;18.30;57.29;100769.92;1906959;75;21099;-45
2022/11/24 08:36:46;;;;;;;27.60;11.78;;;;;;;18.27;56.76;100760.80;1904913;75;21166;-46
2022/11/24 08:39:15;;;;;;;25.12;9.13;;;;;;;18.37;56.58;100761.86;1869856;77;21442;-45
2022/11/24 08:41:44;;;;;;;26.20;10.18;;;;;;;18.30;56.38;100753.44;1869906;75;21111;-45
2022/11/24 08:44:14;;;;;;;19.07;9.25;;;;;;;18.12;56.35;100753.41;1869897;77;21043;-45
2022/11/24 08:46:44;;;;;;;19.30;7.80;;;;;;;18.08;56.42;100750.59;1870047;77;21027;-48
2022/11/24 08:49:15;;;;;;;25.68;9.65;;;;;;;18.14;56.21;100749.67;1870758;76;21070;-48
2022/11/24 08:51:47;;;;;;;22.07;10.28;;;;;;;18.37;55.58;100750.33;1869939;77;21036;-46
2022/11/24 08:54:17;;;;;;;22.52;9.18;;;;;;;18.70;55.16;100737.70;1869774;77;21043;-47
2022/11/24 08:56:45;;;;;;;22.93;8.80;;;;;;;19.15;54.76;100735.30;1869859;77;21068;-48
2022/11/24 08:59:15;;;;;;;20.35;8.23;;;;;;;19.57;54.04;100735.67;1869939;77;21578;-46
2022/11/24 09:01:43;;;;;;;22.15;8.33;;;;;;;20.13;53.25;100734.05;1869910;77;21084;-47
2022/11/24 09:04:12;;;;;;;16.95;7.55;;;;;;;20.68;52.38;100724.28;1869884;77;21106;-48
2022/11/24 09:06:41;;;;;;;25.00;8.35;;;;;;;21.09;51.76;100719.99;1872863;76;21192;-48
2022/11/24 09:09:10;;;;;;;19.37;7.17;;;;;;;21.56;50.93;100717.84;1879032;76;21035;-44
2022/11/24 09:11:39;;;;;;;22.98;9.08;;;;;;;21.86;50.55;100713.98;1878976;76;21142;-44
2022/11/24 09:14:07;;;;;;;13.62;6.20;;;;;;;22.20;49.95;100706.98;1891584;75;21109;-47
2022/11/24 09:16:36;;;;;;;19.00;7.80;;;;;;;22.31;49.31;100703.72;1900643;75;21124;-44
2022/11/24 09:19:11;;;;;;;16.20;6.42;;;;;;;22.38;48.86;100704.53;1903482;75;21119;-45
2022/11/24 09:21:37;;;;;;;17.87;7.35;;;;;;;22.49;48.37;100703.07;1883366;75;21075;-50
2022/11/24 09:24:07;;;;;;;22.60;9.33;;;;;;;22.75;47.75;100691.31;1881498;76;21462;-46
2022/11/24 09:26:38;;;;;;;22.45;8.83;;;;;;;23.01;47.37;100691.59;1884683;76;21481;-45
2022/11/24 09:29:10;;;;;;;25.92;8.75;;;;;;;23.17;46.91;100683.00;1883795;76;21024;-43
2022/11/24 09:31:39;;;;;;;23.12;7.78;;;;;;;23.27;46.51;100681.64;1883534;76;21039;-46
2022/11/24 09:34:10;;;;;;;19.90;7.12;;;;;;;23.39;46.10;100676.97;1878589;74;21536;-57
2022/11/24 09:36:39;;;;;;;21.17;7.37;;;;;;;23.46;46.05;100681.61;1891278;74;21677;-56
2022/11/24 09:39:08;;;;;;;19.37;7.10;;;;;;;23.79;45.79;100674.05;1893938;74;21101;-56
2022/11/24 09:41:51;;;;;;;16.17;6.60;;;;;;;24.19;45.21;100674.70;1908808;74;21557;-57
2022/11/24 09:44:33;;;;;;;;;;;;;;;24.48;44.66;100669.14;1904172;74;21019;-56
2022/11/24 09:47:10;;;;;;;19.57;6.40;;;;;;;24.79;44.96;100666.95;1879297;74;20252;-58
2022/11/24 09:50:00;;;;;;;16.30;6.83;;;;;;;25.12;44.10;100669.94;1896765;74;21033;-57
2022/11/24 09:52:34;;;;;;;17.98;6.65;;;;;;;25.48;43.71;100667.69;1888295;74;21620;-55
2022/11/24 09:55:05;;;;;;;17.73;6.75;;;;;;;25.65;43.20;100659.19;1896033;74;21098;-55
2022/11/24 09:57:36;;;;;;;14.80;6.80;;;;;;;25.76;42.92;100655.69;1896967;74;21014;-54
2022/11/24 10:00:07;;;;;;;16.87;6.55;;;;;;;25.87;42.39;100653.73;1899169;74;21663;-56
2022/11/24 10:02:37;;;;;;;;;;;;;;;26.06;41.97;100652.17;1901549;74;21181;-56
2022/11/24 10:05:06;;;;;;;17.77;7.22;;;;;;;26.24;42.10;100653.90;1897583;74;20100;-56
2022/11/24 10:07:46;;;;;;;19.57;7.55;;;;;;;26.20;41.76;100652.87;1889757;74;21482;-55
2022/11/24 10:10:21;;;;;;;19.95;7.50;;;;;;;26.41;40.85;100647.52;1895966;74;21105;-55
2022/11/24 10:13:01;;;;;;;16.20;5.67;;;;;;;26.55;40.02;100651.44;1897296;73;21136;-54
2022/11/24 10:15:44;;;;;;;14.75;6.05;;;;;;;26.37;39.13;100648.86;1903516;74;21185;-57
2022/11/24 10:18:25;;;;;;;14.73;5.20;;;;;;;26.50;39.22;100643.82;1903218;74;21122;-57
2022/11/24 10:21:08;;;;;;;12.33;5.03;;;;;;;26.64;39.30;100633.44;1901761;73;21149;-56
2022/11/24 10:23:55;;;;;;;15.60;5.78;;;;;;;26.85;39.01;100639.67;1893688;74;21153;-50
2022/11/24 10:26:38;;;;;;;12.47;6.37;;;;;;;26.63;38.18;100634.43;1897951;74;21055;-57
2022/11/24 10:29:19;;;;;;;14.23;6.45;;;;;;;26.37;38.43;100634.02;1902867;74;21203;-57
2022/11/24 10:31:49;;;;;;;14.85;5.10;;;;;;;26.40;38.32;100626.95;1900718;74;21098;-49
2022/11/24 10:34:20;;;;;;;13.40;6.10;;;;;;;26.15;38.24;100629.61;1900617;74;21580;-51
2022/11/24 10:37:13;;;;;;;8.40;3.83;;;;;;;26.08;38.21;100622.30;1903165;74;22562;-55
2022/11/24 10:39:47;;;;;;;14.68;5.10;;;;;;;26.19;37.97;100621.99;1900120;74;21147;-56
2022/11/24 10:42:25;;;;;;;11.50;4.35;;;;;;;26.27;37.49;100619.84;1902287;73;21091;-58
2022/11/24 10:45:15;;;;;;;12.20;5.30;;;;;;;26.16;37.41;100615.08;1897237;74;21227;-58
2022/11/24 10:47:45;;;;;;;10.78;4.83;;;;;;;25.67;38.36;100618.91;1905907;74;21227;-58
2022/11/24 10:50:19;;;;;;;13.13;4.42;;;;;;;25.33;38.98;100617.56;1903505;74;22342;-56
2022/11/24 10:53:06;;;;;;;8.55;3.77;;;;;;;25.56;38.36;100615.16;1901558;74;21486;-56
2022/11/24 10:55:58;;;;;;;12.43;4.37;;;;;;;25.75;38.24;100616.78;1879164;74;21153;-58
2022/11/24 10:58:36;;;;;;;9.58;3.95;;;;;;;24.97;39.34;100610.88;1901046;74;21164;-56
2022/11/24 11:01:16;;;;;;;8.13;4.25;;;;;;;24.96;39.21;100608.69;1901930;74;21581;-55
2022/11/24 11:03:56;;;;;;;13.03;4.22;;;;;;;24.85;39.33;100612.47;1900265;74;21211;-55
2022/11/24 11:06:30;;;;;;;13.58;4.67;;;;;;;24.00;39.94;100605.23;1901419;74;21145;-59
2022/11/24 11:09:10;;;;;;;12.58;4.70;;;;;;;23.26;40.83;100602.89;1902271;74;21100;-60
2022/11/24 11:11:41;;;;;;;15.28;4.90;;;;;;;22.78;42.04;100598.44;1905963;74;21139;-52
2022/11/24 11:14:16;;;;;;;11.50;4.42;;;;;;;22.32;43.04;100592.78;1884549;74;21134;-58
2022/11/24 11:16:47;;;;;;;12.60;3.95;;;;;;;21.78;44.18;100600.25;1876643;75;21045;-56
2022/11/24 11:19:41;;;;;;;6.85;2.50;;;;;;;21.30;44.66;100602.67;1871618;75;21117;-56
2022/11/24 11:22:13;;;;;;;8.08;3.55;;;;;;;20.99;43.24;100601.31;1877251;75;21078;-57
2022/11/24 11:24:44;;;;;;;17.25;3.83;;;;;;;20.80;42.06;100600.66;1880140;75;21172;-57
2022/11/24 11:27:24;;;;;;;5.37;2.83;;;;;;;21.05;41.29;100588.73;1886853;74;21165;-56
2022/11/24 11:29:52;;;;;;;11.05;3.47;;;;;;;21.64;40.81;100583.70;1882498;75;21159;-55
2022/11/24 11:32:23;;;;;;;7.75;3.20;;;;;;;21.95;39.27;100585.34;1878864;75;21212;-55
2022/11/24 11:34:55;;;;;;;10.08;5.22;;;;;;;22.04;39.73;100585.48;1880300;75;21069;-55
2022/11/24 11:37:26;;;;;;;12.35;4.37;;;;;;;22.24;40.78;100591.23;1887293;75;21098;-51
2022/11/24 11:39:55;;;;;;;15.15;4.87;;;;;;;22.31;41.63;100588.89;1896167;75;21112;-58
2022/11/24 11:42:36;;;;;;;11.55;4.10;;;;;;;22.35;42.22;100588.95;1892082;75;21454;-56
2022/11/24 11:45:08;;;;;;;12.35;4.72;;;;;;;22.41;42.33;100587.55;1875836;75;21109;-56